sensor_id;sensor_type;location;lat;lon;timestamp;pressure;altitude;pressure_sealevel;temperature;humidity
55675;BME280;41562;44.330;23.802;2022-09-25T00:01:03;100526.28;;;10.49;80.17
55675;BME280;41562;44.330;23.802;2022-09-25T00:03:31;100529.72;;;10.39;80.32
55675;BME280;41562;44.330;23.802;2022-09-25T00:06:03;100532.94;;;10.46;79.71
55675;BME280;41562;44.330;23.802;2022-09-25T00:08:32;100524.09;;;10.36;79.72
55675;BME280;41562;44.330;23.802;2022-09-25T00:11:06;100521.47;;;10.56;80.68
55675;BME280;41562;44.330;23.802;2022-09-25T00:13:34;100527.88;;;10.50;80.19
55675;BME280;41562;44.330;23.802;2022-09-25T00:16:03;100527.63;;;10.57;79.17
55675;BME280;41562;44.330;23.802;2022-09-25T00:18:30;100522.00;;;10.53;81.55
55675;BME280;41562;44.330;23.802;2022-09-25T00:21:01;100523.38;;;10.71;80.79
55675;BME280;41562;44.330;23.802;2022-09-25T00:23:28;100517.22;;;10.65;80.42
55675;BME280;41562;44.330;23.802;2022-09-25T00:25:55;100514.50;;;10.45;79.49
55675;BME280;41562;44.330;23.802;2022-09-25T00:28:23;100511.03;;;10.49;80.31
55675;BME280;41562;44.330;23.802;2022-09-25T00:30:50;100508.09;;;10.51;80.17
55675;BME280;41562;44.330;23.802;2022-09-25T00:33:18;100504.34;;;10.52;81.65
55675;BME280;41562;44.330;23.802;2022-09-25T00:35:45;100501.38;;;10.43;80.00
55675;BME280;41562;44.330;23.802;2022-09-25T00:38:12;100493.88;;;10.35;79.98
55675;BME280;41562;44.330;23.802;2022-09-25T00:40:40;100507.03;;;10.47;81.25
55675;BME280;41562;44.330;23.802;2022-09-25T00:43:13;100496.84;;;10.44;80.26
55675;BME280;41562;44.330;23.802;2022-09-25T00:45:42;100503.53;;;10.41;79.82
55675;BME280;41562;44.330;23.802;2022-09-25T00:48:13;100502.19;;;10.44;79.55
55675;BME280;41562;44.330;23.802;2022-09-25T00:50:50;100504.84;;;10.39;80.89
55675;BME280;41562;44.330;23.802;2022-09-25T00:53:24;100508.31;;;10.39;81.19
55675;BME280;41562;44.330;23.802;2022-09-25T00:55:55;100515.25;;;10.30;81.35
55675;BME280;41562;44.330;23.802;2022-09-25T00:58:23;100509.94;;;10.35;82.13
55675;BME280;41562;44.330;23.802;2022-09-25T01:00:52;100497.38;;;10.36;80.46
55675;BME280;41562;44.330;23.802;2022-09-25T01:03:20;100507.75;;;10.27;81.46
55675;BME280;41562;44.330;23.802;2022-09-25T01:05:49;100503.47;;;10.31;80.71
55675;BME280;41562;44.330;23.802;2022-09-25T01:08:24;100501.34;;;10.33;80.96
55675;BME280;41562;44.330;23.802;2022-09-25T01:10:53;100506.44;;;10.30;80.86
55675;BME280;41562;44.330;23.802;2022-09-25T01:13:20;100501.63;;;10.32;80.74
55675;BME280;41562;44.330;23.802;2022-09-25T01:16:17;100504.84;;;10.34;80.20
55675;BME280;41562;44.330;23.802;2022-09-25T01:19:02;100505.16;;;10.53;82.51
55675;BME280;41562;44.330;23.802;2022-09-25T01:21:38;100507.56;;;10.54;80.86
55675;BME280;41562;44.330;23.802;2022-09-25T01:27:05;100510.50;;;10.47;83.71
55675;BME280;41562;44.330;23.802;2022-09-25T01:29:50;100516.03;;;10.26;81.76
55675;BME280;41562;44.330;23.802;2022-09-25T01:32:37;100510.16;;;10.29;83.02
55675;BME280;41562;44.330;23.802;2022-09-25T01:35:36;100503.22;;;10.33;85.04
55675;BME280;41562;44.330;23.802;2022-09-25T01:43:48;100503.00;;;10.49;82.86
55675;BME280;41562;44.330;23.802;2022-09-25T01:46:32;100502.41;;;10.27;82.99
55675;BME280;41562;44.330;23.802;2022-09-25T01:49:06;100505.06;;;10.22;83.60
55675;BME280;41562;44.330;23.802;2022-09-25T01:51:47;100502.94;;;10.24;85.02
55675;BME280;41562;44.330;23.802;2022-09-25T01:54:28;100515.22;;;10.25;83.94
55675;BME280;41562;44.330;23.802;2022-09-25T01:57:45;100519.44;;;10.11;84.09
55675;BME280;41562;44.330;23.802;2022-09-25T02:02:22;100526.31;;;10.02;86.57
55675;BME280;41562;44.330;23.802;2022-09-25T02:04:57;100522.59;;;10.03;85.69
55675;BME280;41562;44.330;23.802;2022-09-25T02:07:32;100521.97;;;9.86;85.23
55675;BME280;41562;44.330;23.802;2022-09-25T02:10:05;100524.13;;;9.89;85.46
55675;BME280;41562;44.330;23.802;2022-09-25T02:12:38;100517.44;;;9.86;85.86
55675;BME280;41562;44.330;23.802;2022-09-25T02:17:53;100519.03;;;9.87;85.79
55675;BME280;41562;44.330;23.802;2022-09-25T02:20:22;100525.63;;;9.75;85.69
55675;BME280;41562;44.330;23.802;2022-09-25T02:22:57;100518.41;;;9.70;85.58
55675;BME280;41562;44.330;23.802;2022-09-25T02:26:02;100522.56;;;9.56;86.69
55675;BME280;41562;44.330;23.802;2022-09-25T02:28:31;100509.75;;;9.53;85.98
55675;BME280;41562;44.330;23.802;2022-09-25T02:31:02;100513.19;;;9.48;86.00
55675;BME280;41562;44.330;23.802;2022-09-25T02:33:31;100514.06;;;9.59;86.21
55675;BME280;41562;44.330;23.802;2022-09-25T02:36:00;100505.97;;;9.49;86.03
55675;BME280;41562;44.330;23.802;2022-09-25T02:38:30;100508.75;;;9.64;85.63
55675;BME280;41562;44.330;23.802;2022-09-25T02:41:21;100502.56;;;9.53;86.08
55675;BME280;41562;44.330;23.802;2022-09-25T02:49:23;100502.25;;;9.50;86.05
55675;BME280;41562;44.330;23.802;2022-09-25T02:52:11;100502.19;;;9.40;86.12
55675;BME280;41562;44.330;23.802;2022-09-25T02:54:52;100508.16;;;9.57;87.74
55675;BME280;41562;44.330;23.802;2022-09-25T03:00:16;100512.84;;;9.77;86.61
55675;BME280;41562;44.330;23.802;2022-09-25T03:02:44;100512.41;;;10.00;86.82
55675;BME280;41562;44.330;23.802;2022-09-25T03:05:19;100510.19;;;9.87;86.65
55675;BME280;41562;44.330;23.802;2022-09-25T03:07:46;100501.88;;;9.73;84.42
55675;BME280;41562;44.330;23.802;2022-09-25T03:10:16;100510.13;;;9.66;85.45
55675;BME280;41562;44.330;23.802;2022-09-25T03:12:43;100514.31;;;9.57;85.53
55675;BME280;41562;44.330;23.802;2022-09-25T03:15:11;100507.78;;;9.38;86.74
55675;BME280;41562;44.330;23.802;2022-09-25T03:17:39;100487.25;;;9.44;85.50
55675;BME280;41562;44.330;23.802;2022-09-25T03:20:07;100485.97;;;9.46;87.23
55675;BME280;41562;44.330;23.802;2022-09-25T03:22:35;100482.81;;;9.54;88.24
55675;BME280;41562;44.330;23.802;2022-09-25T03:25:04;100492.97;;;9.62;86.05
55675;BME280;41562;44.330;23.802;2022-09-25T03:27:31;100493.81;;;9.68;86.69
55675;BME280;41562;44.330;23.802;2022-09-25T03:29:58;100500.38;;;9.50;86.12
55675;BME280;41562;44.330;23.802;2022-09-25T03:32:26;100493.50;;;9.54;87.41
55675;BME280;41562;44.330;23.802;2022-09-25T03:34:53;100504.50;;;9.68;87.47
55675;BME280;41562;44.330;23.802;2022-09-25T03:37:23;100503.22;;;9.76;88.39
55675;BME280;41562;44.330;23.802;2022-09-25T03:39:50;100498.88;;;9.64;87.92
55675;BME280;41562;44.330;23.802;2022-09-25T03:42:17;100495.38;;;9.59;85.80
55675;BME280;41562;44.330;23.802;2022-09-25T03:44:45;100487.16;;;9.71;87.46
55675;BME280;41562;44.330;23.802;2022-09-25T03:47:12;100498.06;;;9.64;86.94
55675;BME280;41562;44.330;23.802;2022-09-25T03:49:40;100487.94;;;9.61;85.48
55675;BME280;41562;44.330;23.802;2022-09-25T03:52:14;100493.75;;;9.58;85.79
55675;BME280;41562;44.330;23.802;2022-09-25T03:54:42;100490.53;;;9.56;86.09
55675;BME280;41562;44.330;23.802;2022-09-25T03:57:10;100492.16;;;9.57;86.36
55675;BME280;41562;44.330;23.802;2022-09-25T03:59:38;100495.19;;;9.76;86.81
55675;BME280;41562;44.330;23.802;2022-09-25T04:02:07;100501.38;;;9.81;87.25
55675;BME280;41562;44.330;23.802;2022-09-25T04:04:35;100506.44;;;9.83;86.21
55675;BME280;41562;44.330;23.802;2022-09-25T04:07:03;100510.13;;;9.72;85.33
55675;BME280;41562;44.330;23.802;2022-09-25T04:09:30;100506.44;;;9.83;86.23
55675;BME280;41562;44.330;23.802;2022-09-25T04:11:58;100509.16;;;9.88;84.56
55675;BME280;41562;44.330;23.802;2022-09-25T04:14:26;100508.34;;;9.87;85.66
55675;BME280;41562;44.330;23.802;2022-09-25T04:16:54;100500.75;;;9.69;85.08
55675;BME280;41562;44.330;23.802;2022-09-25T04:19:22;100495.44;;;9.74;84.46
55675;BME280;41562;44.330;23.802;2022-09-25T04:21:50;100502.84;;;9.62;86.93
55675;BME280;41562;44.330;23.802;2022-09-25T04:24:18;100506.75;;;9.86;88.10
55675;BME280;41562;44.330;23.802;2022-09-25T04:26:46;100512.03;;;9.76;86.44
55675;BME280;41562;44.330;23.802;2022-09-25T04:29:14;100505.63;;;9.77;85.22
55675;BME280;41562;44.330;23.802;2022-09-25T04:31:42;100507.22;;;9.73;84.92
55675;BME280;41562;44.330;23.802;2022-09-25T04:34:09;100496.47;;;13.40;81.60
55675;BME280;41562;44.330;23.802;2022-09-25T04:36:36;100506.91;;;16.17;67.07
55675;BME280;41562;44.330;23.802;2022-09-25T04:39:04;100510.59;;;16.21;63.70
55675;BME280;41562;44.330;23.802;2022-09-25T04:41:31;100504.28;;;16.26;63.58
55675;BME280;41562;44.330;23.802;2022-09-25T04:43:58;100506.41;;;15.60;63.41
55675;BME280;41562;44.330;23.802;2022-09-25T04:46:26;100507.63;;;16.09;61.84
55675;BME280;41562;44.330;23.802;2022-09-25T04:48:53;100507.53;;;15.87;62.48
55675;BME280;41562;44.330;23.802;2022-09-25T04:51:21;100501.00;;;16.01;62.34
55675;BME280;41562;44.330;23.802;2022-09-25T04:53:48;100503.31;;;15.67;62.02
55675;BME280;41562;44.330;23.802;2022-09-25T04:56:15;100510.75;;;15.43;61.65
55675;BME280;41562;44.330;23.802;2022-09-25T04:58:47;100509.25;;;15.18;63.14
55675;BME280;41562;44.330;23.802;2022-09-25T05:01:17;100504.13;;;15.67;62.33
55675;BME280;41562;44.330;23.802;2022-09-25T05:03:49;100512.69;;;15.23;63.15
55675;BME280;41562;44.330;23.802;2022-09-25T05:06:18;100510.94;;;15.14;63.25
55675;BME280;41562;44.330;23.802;2022-09-25T05:08:46;100511.09;;;14.29;63.64
55675;BME280;41562;44.330;23.802;2022-09-25T05:11:14;100503.75;;;14.34;65.93
55675;BME280;41562;44.330;23.802;2022-09-25T05:13:42;100496.97;;;15.12;62.98
55675;BME280;41562;44.330;23.802;2022-09-25T05:16:11;100499.91;;;14.97;63.50
55675;BME280;41562;44.330;23.802;2022-09-25T05:18:41;100495.31;;;14.97;62.37
55675;BME280;41562;44.330;23.802;2022-09-25T05:21:09;100492.91;;;14.96;62.36
55675;BME280;41562;44.330;23.802;2022-09-25T05:23:36;100490.88;;;14.87;64.14
55675;BME280;41562;44.330;23.802;2022-09-25T05:26:03;100489.22;;;15.24;62.57
55675;BME280;41562;44.330;23.802;2022-09-25T05:28:31;100494.91;;;14.71;64.18
55675;BME280;41562;44.330;23.802;2022-09-25T05:31:02;100495.94;;;12.70;71.92
55675;BME280;41562;44.330;23.802;2022-09-25T05:33:32;100497.59;;;12.01;75.01
55675;BME280;41562;44.330;23.802;2022-09-25T05:36:00;100503.81;;;11.72;78.35
55675;BME280;41562;44.330;23.802;2022-09-25T05:38:30;100498.00;;;11.49;76.72
55675;BME280;41562;44.330;23.802;2022-09-25T05:41:02;100489.84;;;12.00;76.81
55675;BME280;41562;44.330;23.802;2022-09-25T05:43:30;100501.38;;;12.55;76.98
55675;BME280;41562;44.330;23.802;2022-09-25T05:45:58;100500.41;;;12.35;76.08
55675;BME280;41562;44.330;23.802;2022-09-25T05:48:26;100497.38;;;12.47;76.69
55675;BME280;41562;44.330;23.802;2022-09-25T05:50:54;100493.41;;;12.44;76.43
55675;BME280;41562;44.330;23.802;2022-09-25T05:53:23;100484.88;;;14.16;72.38
55675;BME280;41562;44.330;23.802;2022-09-25T05:55:55;100490.63;;;13.33;73.11
55675;BME280;41562;44.330;23.802;2022-09-25T05:58:24;100493.25;;;13.38;74.35
55675;BME280;41562;44.330;23.802;2022-09-25T06:00:53;100503.88;;;13.77;71.66
55675;BME280;41562;44.330;23.802;2022-09-25T06:03:24;100512.44;;;13.79;69.64
55675;BME280;41562;44.330;23.802;2022-09-25T06:05:54;100516.34;;;13.91;69.79
55675;BME280;41562;44.330;23.802;2022-09-25T06:08:21;100520.00;;;14.00;69.01
55675;BME280;41562;44.330;23.802;2022-09-25T06:10:53;100507.50;;;14.15;68.99
55675;BME280;41562;44.330;23.802;2022-09-25T06:13:24;100508.69;;;14.03;67.45
55675;BME280;41562;44.330;23.802;2022-09-25T06:15:51;100511.78;;;13.92;66.61
55675;BME280;41562;44.330;23.802;2022-09-25T06:18:20;100518.25;;;14.15;69.20
55675;BME280;41562;44.330;23.802;2022-09-25T06:20:48;100502.09;;;14.38;63.94
55675;BME280;41562;44.330;23.802;2022-09-25T06:23:17;100502.38;;;14.13;65.05
55675;BME280;41562;44.330;23.802;2022-09-25T06:25:47;100507.13;;;13.97;66.33
55675;BME280;41562;44.330;23.802;2022-09-25T06:28:15;100512.97;;;14.04;64.73
55675;BME280;41562;44.330;23.802;2022-09-25T06:30:42;100506.00;;;14.03;65.06
55675;BME280;41562;44.330;23.802;2022-09-25T06:33:12;100507.31;;;14.06;65.44
55675;BME280;41562;44.330;23.802;2022-09-25T06:35:41;100506.13;;;14.36;63.54
55675;BME280;41562;44.330;23.802;2022-09-25T06:38:09;100497.31;;;14.54;63.36
55675;BME280;41562;44.330;23.802;2022-09-25T06:40:37;100493.97;;;14.62;64.93
55675;BME280;41562;44.330;23.802;2022-09-25T06:43:08;100507.41;;;14.62;63.42
55675;BME280;41562;44.330;23.802;2022-09-25T06:45:36;100510.25;;;14.52;63.05
55675;BME280;41562;44.330;23.802;2022-09-25T06:48:06;100512.16;;;14.52;61.40
55675;BME280;41562;44.330;23.802;2022-09-25T06:50:51;100507.91;;;15.34;61.06
55675;BME280;41562;44.330;23.802;2022-09-25T06:53:20;100514.75;;;14.94;62.10
55675;BME280;41562;44.330;23.802;2022-09-25T06:55:49;100515.28;;;14.77;61.89
55675;BME280;41562;44.330;23.802;2022-09-25T06:58:19;100506.91;;;14.60;61.38
55675;BME280;41562;44.330;23.802;2022-09-25T07:00:48;100512.72;;;14.67;61.85
55675;BME280;41562;44.330;23.802;2022-09-25T07:03:16;100514.63;;;14.67;63.20
55675;BME280;41562;44.330;23.802;2022-09-25T07:05:45;100507.56;;;14.71;63.07
55675;BME280;41562;44.330;23.802;2022-09-25T07:08:15;100507.69;;;14.98;60.49
55675;BME280;41562;44.330;23.802;2022-09-25T07:10:51;100500.59;;;15.21;62.83
55675;BME280;41562;44.330;23.802;2022-09-25T07:13:20;100509.25;;;15.18;62.45
55675;BME280;41562;44.330;23.802;2022-09-25T07:18:23;100511.50;;;15.43;63.48
55675;BME280;41562;44.330;23.802;2022-09-25T07:20:51;100504.22;;;15.44;61.84
55675;BME280;41562;44.330;23.802;2022-09-25T07:23:20;100513.03;;;15.49;61.35
55675;BME280;41562;44.330;23.802;2022-09-25T07:25:50;100520.97;;;15.59;60.95
55675;BME280;41562;44.330;23.802;2022-09-25T07:28:18;100527.28;;;15.96;60.77
55675;BME280;41562;44.330;23.802;2022-09-25T07:30:45;100519.50;;;16.08;59.10
55675;BME280;41562;44.330;23.802;2022-09-25T07:33:13;100519.50;;;16.08;60.67
55675;BME280;41562;44.330;23.802;2022-09-25T07:35:40;100519.88;;;16.29;60.38
55675;BME280;41562;44.330;23.802;2022-09-25T07:38:08;100516.56;;;16.32;57.91
55675;BME280;41562;44.330;23.802;2022-09-25T07:40:35;100520.19;;;16.27;58.01
55675;BME280;41562;44.330;23.802;2022-09-25T07:43:03;100522.88;;;16.27;56.65
55675;BME280;41562;44.330;23.802;2022-09-25T07:45:31;100519.66;;;16.39;58.38
55675;BME280;41562;44.330;23.802;2022-09-25T07:48:00;100508.19;;;16.33;59.24
55675;BME280;41562;44.330;23.802;2022-09-25T07:50:30;100491.56;;;16.40;57.48
55675;BME280;41562;44.330;23.802;2022-09-25T07:52:57;100488.34;;;16.52;58.02
55675;BME280;41562;44.330;23.802;2022-09-25T07:55:25;100476.94;;;16.91;56.22
55675;BME280;41562;44.330;23.802;2022-09-25T07:57:55;100473.69;;;17.24;60.15
55675;BME280;41562;44.330;23.802;2022-09-25T08:00:23;100487.28;;;17.64;56.93
55675;BME280;41562;44.330;23.802;2022-09-25T08:02:58;100477.59;;;18.28;57.57
55675;BME280;41562;44.330;23.802;2022-09-25T08:05:26;100483.88;;;18.80;54.82
55675;BME280;41562;44.330;23.802;2022-09-25T08:07:54;100484.81;;;18.67;54.47
55675;BME280;41562;44.330;23.802;2022-09-25T08:10:21;100484.03;;;18.75;52.72
55675;BME280;41562;44.330;23.802;2022-09-25T08:12:49;100494.59;;;18.12;52.97
55675;BME280;41562;44.330;23.802;2022-09-25T08:15:16;100490.84;;;17.51;52.27
55675;BME280;41562;44.330;23.802;2022-09-25T08:17:44;100490.03;;;17.50;52.53
55675;BME280;41562;44.330;23.802;2022-09-25T08:20:11;100488.59;;;17.53;52.32
55675;BME280;41562;44.330;23.802;2022-09-25T08:22:38;100485.25;;;17.47;53.43
55675;BME280;41562;44.330;23.802;2022-09-25T08:25:06;100478.69;;;17.40;53.55
55675;BME280;41562;44.330;23.802;2022-09-25T08:27:35;100479.66;;;17.44;53.47
55675;BME280;41562;44.330;23.802;2022-09-25T08:30:02;100468.44;;;17.59;52.57
55675;BME280;41562;44.330;23.802;2022-09-25T08:32:32;100475.22;;;17.48;52.94
55675;BME280;41562;44.330;23.802;2022-09-25T08:35:00;100464.41;;;17.48;52.41
55675;BME280;41562;44.330;23.802;2022-09-25T08:37:27;100462.66;;;17.52;52.60
55675;BME280;41562;44.330;23.802;2022-09-25T08:39:55;100454.44;;;17.57;52.48
55675;BME280;41562;44.330;23.802;2022-09-25T08:42:28;100459.44;;;17.72;52.18
55675;BME280;41562;44.330;23.802;2022-09-25T08:45:00;100451.13;;;18.08;57.60
55675;BME280;41562;44.330;23.802;2022-09-25T08:47:50;100451.84;;;18.82;55.91
55675;BME280;41562;44.330;23.802;2022-09-25T08:50:19;100452.81;;;19.50;53.52
55675;BME280;41562;44.330;23.802;2022-09-25T08:53:03;100454.09;;;20.41;53.59
55675;BME280;41562;44.330;23.802;2022-09-25T08:55:34;100456.53;;;19.75;50.93
55675;BME280;41562;44.330;23.802;2022-09-25T08:58:02;100449.63;;;19.48;51.43
55675;BME280;41562;44.330;23.802;2022-09-25T09:00:30;100457.06;;;19.98;47.99
55675;BME280;41562;44.330;23.802;2022-09-25T09:02:58;100449.56;;;19.65;46.16
55675;BME280;41562;44.330;23.802;2022-09-25T09:05:29;100448.88;;;19.77;45.88
55675;BME280;41562;44.330;23.802;2022-09-25T09:08:17;100449.09;;;19.63;46.82
55675;BME280;41562;44.330;23.802;2022-09-25T09:10:51;100453.97;;;19.79;53.62
55675;BME280;41562;44.330;23.802;2022-09-25T09:13:44;100451.88;;;20.55;49.97
55675;BME280;41562;44.330;23.802;2022-09-25T09:16:20;100448.91;;;20.69;51.92
55675;BME280;41562;44.330;23.802;2022-09-25T09:18:49;100450.75;;;21.10;51.70
55675;BME280;41562;44.330;23.802;2022-09-25T09:21:33;100454.03;;;21.03;47.85
55675;BME280;41562;44.330;23.802;2022-09-25T09:32:22;100447.50;;;21.16;47.49
55675;BME280;41562;44.330;23.802;2022-09-25T09:38:14;100446.75;;;20.74;46.90
55675;BME280;41562;44.330;23.802;2022-09-25T09:40:46;100443.50;;;20.48;46.33
55675;BME280;41562;44.330;23.802;2022-09-25T09:43:31;100446.00;;;20.32;47.79
55675;BME280;41562;44.330;23.802;2022-09-25T09:51:54;100407.75;;;20.91;44.35
55675;BME280;41562;44.330;23.802;2022-09-25T09:56:55;100418.19;;;21.01;48.24
55675;BME280;41562;44.330;23.802;2022-09-25T09:59:31;100403.59;;;21.06;46.88
55675;BME280;41562;44.330;23.802;2022-09-25T10:02:12;100407.22;;;20.65;46.01
55675;BME280;41562;44.330;23.802;2022-09-25T10:04:43;100410.47;;;20.58;45.38
55675;BME280;41562;44.330;23.802;2022-09-25T10:07:16;100395.13;;;20.74;48.59
55675;BME280;41562;44.330;23.802;2022-09-25T10:09:50;100391.81;;;21.02;45.21
55675;BME280;41562;44.330;23.802;2022-09-25T10:14:47;100395.78;;;21.04;42.58
55675;BME280;41562;44.330;23.802;2022-09-25T10:17:15;100393.06;;;21.04;42.54
55675;BME280;41562;44.330;23.802;2022-09-25T10:19:48;100394.66;;;21.05;42.12
55675;BME280;41562;44.330;23.802;2022-09-25T10:22:20;100394.25;;;21.15;42.35
55675;BME280;41562;44.330;23.802;2022-09-25T10:32:59;100387.50;;;21.13;42.89
55675;BME280;41562;44.330;23.802;2022-09-25T10:35:28;100386.88;;;21.16;41.93
55675;BME280;41562;44.330;23.802;2022-09-25T10:38:27;100383.59;;;21.22;41.93
55675;BME280;41562;44.330;23.802;2022-09-25T10:41:10;100379.78;;;21.36;46.34
55675;BME280;41562;44.330;23.802;2022-09-25T10:46:29;100367.97;;;21.68;42.68
55675;BME280;41562;44.330;23.802;2022-09-25T10:49:17;100369.53;;;21.81;42.64
55675;BME280;41562;44.330;23.802;2022-09-25T10:52:00;100355.22;;;21.96;43.69
55675;BME280;41562;44.330;23.802;2022-09-25T10:54:28;100361.56;;;21.88;42.19
55675;BME280;41562;44.330;23.802;2022-09-25T10:56:55;100367.25;;;21.83;41.28
55675;BME280;41562;44.330;23.802;2022-09-25T10:59:23;100347.28;;;21.91;41.21
55675;BME280;41562;44.330;23.802;2022-09-25T11:01:51;100351.63;;;21.80;40.04
55675;BME280;41562;44.330;23.802;2022-09-25T11:06:50;100338.91;;;21.72;40.20
55675;BME280;41562;44.330;23.802;2022-09-25T11:09:20;100337.13;;;21.64;39.13
55675;BME280;41562;44.330;23.802;2022-09-25T11:11:51;100332.44;;;21.77;38.96
55675;BME280;41562;44.330;23.802;2022-09-25T11:14:22;100320.75;;;21.76;39.18
55675;BME280;41562;44.330;23.802;2022-09-25T11:16:54;100315.09;;;21.81;38.65
55675;BME280;41562;44.330;23.802;2022-09-25T11:19:36;100318.22;;;22.08;39.70
55675;BME280;41562;44.330;23.802;2022-09-25T11:22:24;100314.41;;;21.84;37.17
55675;BME280;41562;44.330;23.802;2022-09-25T11:27:43;100308.59;;;21.98;37.57
55675;BME280;41562;44.330;23.802;2022-09-25T11:30:19;100301.91;;;21.95;37.95
55675;BME280;41562;44.330;23.802;2022-09-25T11:35:32;100299.50;;;22.06;37.31
55675;BME280;41562;44.330;23.802;2022-09-25T11:41:03;100301.66;;;22.00;37.31
55675;BME280;41562;44.330;23.802;2022-09-25T11:46:06;100296.63;;;22.15;35.32
55675;BME280;41562;44.330;23.802;2022-09-25T11:48:51;100301.56;;;21.97;34.75
55675;BME280;41562;44.330;23.802;2022-09-25T11:54:33;100299.94;;;22.08;37.05
55675;BME280;41562;44.330;23.802;2022-09-25T11:57:12;100294.41;;;22.04;37.40
55675;BME280;41562;44.330;23.802;2022-09-25T11:59:55;100287.31;;;22.16;37.40
55675;BME280;41562;44.330;23.802;2022-09-25T12:08:19;100275.13;;;22.25;36.63
55675;BME280;41562;44.330;23.802;2022-09-25T12:10:55;100279.53;;;22.02;36.71
55675;BME280;41562;44.330;23.802;2022-09-25T12:19:17;100284.88;;;21.98;37.04
55675;BME280;41562;44.330;23.802;2022-09-25T12:21:59;100281.38;;;21.98;37.35
55675;BME280;41562;44.330;23.802;2022-09-25T12:38:26;100265.69;;;21.95;35.72
55675;BME280;41562;44.330;23.802;2022-09-25T12:41:06;100258.53;;;22.02;36.16
55675;BME280;41562;44.330;23.802;2022-09-25T12:46:32;100255.28;;;21.85;35.09
55675;BME280;41562;44.330;23.802;2022-09-25T12:49:31;100251.19;;;21.91;36.79
55675;BME280;41562;44.330;23.802;2022-09-25T12:52:16;100238.59;;;21.98;35.71
55675;BME280;41562;44.330;23.802;2022-09-25T12:57:42;100235.63;;;22.03;34.27
55675;BME280;41562;44.330;23.802;2022-09-25T13:00:32;100225.41;;;22.00;34.75
55675;BME280;41562;44.330;23.802;2022-09-25T13:06:15;100221.28;;;21.79;34.84
55675;BME280;41562;44.330;23.802;2022-09-25T13:11:48;100213.00;;;21.75;35.16
55675;BME280;41562;44.330;23.802;2022-09-25T13:14:30;100206.03;;;21.90;35.13
55675;BME280;41562;44.330;23.802;2022-09-25T13:17:12;100213.38;;;22.01;35.05
55675;BME280;41562;44.330;23.802;2022-09-25T13:19:47;100210.66;;;22.01;35.78
55675;BME280;41562;44.330;23.802;2022-09-25T13:22:23;100192.66;;;21.97;34.86
55675;BME280;41562;44.330;23.802;2022-09-25T13:25:11;100202.53;;;22.17;33.65
55675;BME280;41562;44.330;23.802;2022-09-25T13:27:44;100204.25;;;22.10;33.65
55675;BME280;41562;44.330;23.802;2022-09-25T13:30:24;100195.25;;;21.93;33.65
55675;BME280;41562;44.330;23.802;2022-09-25T13:32:53;100189.28;;;21.76;33.12
55675;BME280;41562;44.330;23.802;2022-09-25T13:35:22;100185.00;;;21.75;34.63
55675;BME280;41562;44.330;23.802;2022-09-25T13:37:52;100178.13;;;21.65;34.71
55675;BME280;41562;44.330;23.802;2022-09-25T13:40:25;100183.34;;;21.58;35.85
55675;BME280;41562;44.330;23.802;2022-09-25T13:43:24;100180.38;;;21.63;35.79
55675;BME280;41562;44.330;23.802;2022-09-25T13:48:40;100169.97;;;21.65;35.80
55675;BME280;41562;44.330;23.802;2022-09-25T13:56:48;100161.25;;;21.59;36.86
55675;BME280;41562;44.330;23.802;2022-09-25T14:01:55;100158.88;;;21.58;37.77
55675;BME280;41562;44.330;23.802;2022-09-25T14:04:29;100158.97;;;21.61;36.93
55675;BME280;41562;44.330;23.802;2022-09-25T14:07:27;100152.53;;;21.54;36.20
55675;BME280;41562;44.330;23.802;2022-09-25T14:09:57;100140.53;;;21.55;40.78
55675;BME280;41562;44.330;23.802;2022-09-25T14:15:17;100130.44;;;21.55;39.62
55675;BME280;41562;44.330;23.802;2022-09-25T14:17:49;100134.63;;;21.53;37.17
55675;BME280;41562;44.330;23.802;2022-09-25T14:23:26;100141.03;;;21.33;39.50
55675;BME280;41562;44.330;23.802;2022-09-25T14:26:02;100137.28;;;21.37;39.37
55675;BME280;41562;44.330;23.802;2022-09-25T14:28:32;100138.13;;;21.25;40.48
55675;BME280;41562;44.330;23.802;2022-09-25T14:31:10;100138.56;;;21.27;40.42
55675;BME280;41562;44.330;23.802;2022-09-25T14:36:31;100134.28;;;21.14;40.61
55675;BME280;41562;44.330;23.802;2022-09-25T14:47:19;100142.25;;;20.83;42.37
55675;BME280;41562;44.330;23.802;2022-09-25T14:49:50;100122.56;;;20.86;41.16
55675;BME280;41562;44.330;23.802;2022-09-25T14:52:22;100130.56;;;20.95;43.25
55675;BME280;41562;44.330;23.802;2022-09-25T14:54:54;100127.47;;;21.20;42.43
55675;BME280;41562;44.330;23.802;2022-09-25T14:57:25;100129.63;;;21.15;40.21
55675;BME280;41562;44.330;23.802;2022-09-25T15:00:15;100128.75;;;21.11;39.90
55675;BME280;41562;44.330;23.802;2022-09-25T15:02:45;100120.03;;;21.05;39.77
55675;BME280;41562;44.330;23.802;2022-09-25T15:07:57;100110.94;;;21.13;38.83
55675;BME280;41562;44.330;23.802;2022-09-25T15:10:28;100107.03;;;20.99;40.20
55675;BME280;41562;44.330;23.802;2022-09-25T15:13:14;100117.44;;;20.97;42.43
55675;BME280;41562;44.330;23.802;2022-09-25T15:15:44;100115.72;;;21.44;46.68
55675;BME280;41562;44.330;23.802;2022-09-25T15:18:13;100117.69;;;21.32;43.49
55675;BME280;41562;44.330;23.802;2022-09-25T15:20:46;100114.91;;;21.56;49.64
55675;BME280;41562;44.330;23.802;2022-09-25T15:23:18;100108.72;;;21.43;50.79
55675;BME280;41562;44.330;23.802;2022-09-25T15:25:54;100114.63;;;21.33;53.69
55675;BME280;41562;44.330;23.802;2022-09-25T15:28:24;100115.72;;;21.16;56.92
55675;BME280;41562;44.330;23.802;2022-09-25T15:30:58;100117.06;;;21.10;49.29